createdAt,value
2018-07-30T00:02:06.145Z,94674.33
2018-07-30T00:04:33.112Z,94664.71
2018-07-30T00:06:59.497Z,94660.69
2018-07-30T00:09:25.855Z,94658.41
2018-07-30T00:11:52.228Z,94660.80
2018-07-30T00:14:18.631Z,94660.23
2018-07-30T00:16:44.954Z,94664.71
2018-07-30T00:19:11.278Z,94668.58
2018-07-30T00:21:37.655Z,94662.39
2018-07-30T00:24:04.014Z,94659.34
2018-07-30T00:26:30.343Z,94660.98
2018-07-30T00:28:56.715Z,94669.38
2018-07-30T00:31:23.113Z,94668.52
2018-07-30T00:33:49.411Z,94664.59
2018-07-30T00:36:15.772Z,94667.17
2018-07-30T00:38:42.107Z,94675.31
2018-07-30T00:41:08.511Z,94666.82
2018-07-30T00:43:34.838Z,94679.52
2018-07-30T00:46:01.203Z,94683.48
2018-07-30T00:48:27.533Z,94683.40
2018-07-30T00:50:53.899Z,94679.17
2018-07-30T00:53:20.257Z,94678.78
2018-07-30T00:55:46.659Z,94682.20
2018-07-30T00:58:13.026Z,94673.72
2018-07-30T01:00:39.354Z,94678.66
2018-07-30T01:03:05.723Z,94673.13
2018-07-30T01:05:32.053Z,94670.84
2018-07-30T01:07:58.410Z,94671.48
2018-07-30T01:10:24.787Z,94673.66
2018-07-30T01:12:51.151Z,94671.45
2018-07-30T01:15:17.498Z,94663.21
2018-07-30T01:17:43.914Z,94667.13
2018-07-30T01:20:10.245Z,94670.52
2018-07-30T01:22:36.584Z,94662.69
2018-07-30T01:25:02.928Z,94663.36
2018-07-30T01:27:29.267Z,94660.27
2018-07-30T01:29:55.632Z,94660.94
2018-07-30T01:32:21.959Z,94665.11
2018-07-30T01:34:48.301Z,94666.28
2018-07-30T01:37:14.622Z,94660.62
2018-07-30T01:39:40.974Z,94660.27
2018-07-30T01:42:07.273Z,94660.16
2018-07-30T01:44:33.581Z,94652.59
2018-07-30T01:46:59.940Z,94662.47
2018-07-30T01:49:26.295Z,94657.01
2018-07-30T01:51:52.616Z,94656.77
2018-07-30T01:54:19.008Z,94656.56
2018-07-30T01:56:45.330Z,94671.40
2018-07-30T01:59:11.668Z,94667.22
2018-07-30T02:01:38.027Z,94670.61
2018-07-30T02:04:04.453Z,94662.88
2018-07-30T02:06:30.779Z,94663.27
2018-07-30T02:08:57.106Z,94670.56
2018-07-30T02:11:23.478Z,94667.88
2018-07-30T02:13:49.790Z,94668.20
2018-07-30T02:16:16.135Z,94676.53
2018-07-30T02:18:42.468Z,94665.61
2018-07-30T02:21:08.832Z,94667.02
2018-07-30T02:23:35.192Z,94666.97
2018-07-30T02:26:01.501Z,94670.29
2018-07-30T02:28:27.865Z,94670.67
2018-07-30T02:30:54.194Z,94667.11
2018-07-30T02:33:20.563Z,94664.17
2018-07-30T02:35:46.894Z,94667.77
2018-07-30T02:38:13.248Z,94672.30
2018-07-30T02:40:39.653Z,94676.48
2018-07-30T02:43:05.991Z,94676.14
2018-07-30T02:45:32.319Z,94682.91
2018-07-30T02:47:58.640Z,94687.34
2018-07-30T02:50:24.975Z,94677.67
2018-07-30T02:52:51.335Z,94675.95
2018-07-30T02:55:17.662Z,94671.69
2018-07-30T02:57:44.022Z,94681.30
2018-07-30T03:00:10.394Z,94686.61
2018-07-30T03:02:36.721Z,94689.02
2018-07-30T03:05:03.084Z,94679.41
2018-07-30T03:07:29.390Z,94683.48
2018-07-30T03:09:55.723Z,94690.45
2018-07-30T03:12:22.088Z,94688.47
2018-07-30T03:14:48.416Z,94692.71
2018-07-30T03:17:15.252Z,94690.30
2018-07-30T03:19:41.585Z,94684.89
2018-07-30T03:22:07.938Z,94683.77
2018-07-30T03:24:34.263Z,94687.22
2018-07-30T03:27:00.627Z,94686.00
2018-07-30T03:29:26.999Z,94692.48
2018-07-30T03:31:53.358Z,94693.00
2018-07-30T03:34:19.818Z,94693.20
2018-07-30T03:36:46.143Z,94696.47
2018-07-30T03:39:12.496Z,94691.20
2018-07-30T03:41:38.894Z,94697.02
2018-07-30T03:44:05.227Z,94692.19
2018-07-30T03:46:31.558Z,94690.32
2018-07-30T03:48:57.895Z,94688.27
2018-07-30T03:51:24.253Z,94698.63
2018-07-30T03:53:50.595Z,94696.27
2018-07-30T03:56:16.933Z,94693.32
2018-07-30T03:58:43.259Z,94698.06
2018-07-30T04:01:09.626Z,94703.88
2018-07-30T04:03:35.955Z,94701.41
2018-07-30T04:06:02.343Z,94695.84
2018-07-30T04:08:28.683Z,94691.62
2018-07-30T04:10:55.084Z,94703.78
2018-07-30T04:13:21.450Z,94711.99
2018-07-30T04:15:47.779Z,94715.69
2018-07-30T04:18:14.149Z,94710.52
2018-07-30T04:20:40.465Z,94709.41
2018-07-30T04:23:06.779Z,94707.49
2018-07-30T04:25:33.162Z,94710.47
2018-07-30T04:27:59.496Z,94711.99
2018-07-30T04:30:25.854Z,94711.64
2018-07-30T04:32:52.807Z,94721.62
2018-07-30T04:35:19.159Z,94715.97
2018-07-30T04:37:45.495Z,94721.62
2018-07-30T04:40:11.813Z,94721.39
2018-07-30T04:42:38.141Z,94715.19
2018-07-30T04:45:04.522Z,94719.52
2018-07-30T04:47:30.924Z,94721.08
2018-07-30T04:49:57.259Z,94722.62
2018-07-30T04:52:23.588Z,94722.66
2018-07-30T04:54:49.983Z,94719.99
2018-07-30T04:57:16.370Z,94725.91
2018-07-30T04:59:42.834Z,94723.64
2018-07-30T05:02:09.178Z,94722.36
2018-07-30T05:04:35.537Z,94727.00
2018-07-30T05:07:01.917Z,94719.63
2018-07-30T05:09:28.287Z,94722.36
2018-07-30T05:11:54.631Z,94725.16
2018-07-30T05:14:21.014Z,94718.03
2018-07-30T05:16:47.370Z,94720.81
2018-07-30T05:19:13.766Z,94720.14
2018-07-30T05:21:40.145Z,94713.55
2018-07-30T05:24:06.503Z,94717.83
2018-07-30T05:26:32.891Z,94715.45
2018-07-30T05:28:59.287Z,94715.30
2018-07-30T05:31:25.718Z,94715.03
2018-07-30T05:33:52.168Z,94715.16
2018-07-30T05:36:18.609Z,94712.17
2018-07-30T05:38:44.994Z,94711.15
2018-07-30T05:41:11.341Z,94714.38
2018-07-30T05:43:37.691Z,94707.72
2018-07-30T05:46:04.110Z,94710.24
2018-07-30T05:48:30.456Z,94712.91
2018-07-30T05:50:56.875Z,94721.23
2018-07-30T05:53:23.247Z,94713.12
2018-07-30T05:55:49.621Z,94711.98
2018-07-30T05:58:15.983Z,94720.19
2018-07-30T06:00:42.323Z,94717.20
2018-07-30T06:03:08.652Z,94720.73
2018-07-30T06:05:35.091Z,94721.63
2018-07-30T06:08:01.437Z,94723.67
2018-07-30T06:10:27.811Z,94728.77
2018-07-30T06:12:54.204Z,94728.41
2018-07-30T06:15:20.534Z,94726.63
2018-07-30T06:17:46.901Z,94727.82
2018-07-30T06:20:13.264Z,94726.41
2018-07-30T06:22:40.363Z,94726.20
2018-07-30T06:25:06.751Z,94728.98
2018-07-30T06:27:33.144Z,94727.19
2018-07-30T06:29:59.504Z,94729.00
2018-07-30T06:32:25.827Z,94732.16
2018-07-30T06:34:52.203Z,94735.20
2018-07-30T06:37:18.615Z,94728.89
2018-07-30T06:39:44.951Z,94727.61
2018-07-30T06:42:11.310Z,94731.28
2018-07-30T06:44:37.751Z,94732.25
2018-07-30T06:47:04.167Z,94729.26
2018-07-30T06:49:30.588Z,94733.53
2018-07-30T06:51:56.939Z,94727.69
2018-07-30T06:54:23.310Z,94737.05
2018-07-30T06:56:49.741Z,94738.12
2018-07-30T06:59:16.107Z,94736.14
2018-07-30T07:01:42.473Z,94735.94
2018-07-30T07:04:08.879Z,94737.86
2018-07-30T07:06:35.237Z,94735.28
2018-07-30T07:09:01.599Z,94736.16
2018-07-30T07:11:27.958Z,94738.72
2018-07-30T07:13:54.338Z,94737.71
2018-07-30T07:16:20.712Z,94732.42
2018-07-30T07:18:47.109Z,94732.27
2018-07-30T07:21:13.486Z,94723.62
2018-07-30T07:23:39.894Z,94732.27
2018-07-30T07:26:06.277Z,94730.64
2018-07-30T07:28:32.608Z,94731.86
2018-07-30T07:30:59.552Z,94727.28
2018-07-30T07:33:26.003Z,94732.33
2018-07-30T07:35:52.395Z,94734.37
2018-07-30T07:38:18.751Z,94743.95
2018-07-30T07:40:45.083Z,94741.77
2018-07-30T07:43:11.454Z,94733.30
2018-07-30T07:45:37.846Z,94743.00
2018-07-30T07:48:04.310Z,94733.89
2018-07-30T07:50:30.791Z,94734.91
2018-07-30T07:52:57.079Z,94739.00
2018-07-30T07:55:23.439Z,94750.07
2018-07-30T07:57:49.870Z,94743.56
2018-07-30T08:00:16.249Z,94741.37
2018-07-30T08:02:42.657Z,94744.72
2018-07-30T08:05:09.114Z,94750.16
2018-07-30T08:07:35.422Z,94739.95
2018-07-30T08:10:01.754Z,94753.12
2018-07-30T08:12:28.169Z,94747.75
2018-07-30T08:14:54.569Z,94741.64
2018-07-30T08:17:20.910Z,94736.33
2018-07-30T08:19:47.291Z,94732.83
2018-07-30T08:22:13.750Z,94734.49
2018-07-30T08:24:40.056Z,94738.11
2018-07-30T08:27:06.387Z,94738.24
2018-07-30T08:29:32.754Z,94736.95
2018-07-30T08:31:59.092Z,94738.11
2018-07-30T08:34:25.450Z,94738.91
2018-07-30T08:36:51.854Z,94739.32
2018-07-30T08:39:18.212Z,94738.56
2018-07-30T08:41:44.672Z,94741.37
2018-07-30T08:44:10.991Z,94737.36
2018-07-30T08:46:37.360Z,94740.42
2018-07-30T08:49:03.711Z,94735.94
2018-07-30T08:51:30.032Z,94744.63
2018-07-30T08:53:56.403Z,94737.34
2018-07-30T08:56:22.841Z,94724.95
2018-07-30T08:58:49.232Z,94725.90
2018-07-30T09:01:15.621Z,94726.87
2018-07-30T09:03:42.038Z,94727.14
2018-07-30T09:06:08.399Z,94723.62
2018-07-30T09:08:34.807Z,94720.22
2018-07-30T09:11:01.190Z,94720.34
2018-07-30T09:13:27.556Z,94717.91
2018-07-30T09:15:53.954Z,94716.80
2018-07-30T09:18:20.278Z,94714.71
2018-07-30T09:20:46.702Z,94712.17
2018-07-30T09:23:13.040Z,94709.39
2018-07-30T09:25:39.379Z,94710.56
2018-07-30T09:28:05.721Z,94705.91
2018-07-30T09:30:32.128Z,94706.13
2018-07-30T09:32:58.643Z,94704.52
2018-07-30T09:35:24.888Z,94702.94
2018-07-30T09:37:51.244Z,94693.42
2018-07-30T09:40:17.622Z,94688.23
2018-07-30T09:42:44.043Z,94682.23
2018-07-30T09:45:10.393Z,94684.28
2018-07-30T09:47:36.765Z,94678.64
2018-07-30T09:50:03.161Z,94686.83
2018-07-30T09:52:29.591Z,94684.51
2018-07-30T09:54:55.961Z,94691.38
2018-07-30T09:57:22.319Z,94682.36
2018-07-30T09:59:48.695Z,94681.95
2018-07-30T10:02:15.122Z,94675.75
2018-07-30T10:04:41.504Z,94677.67
2018-07-30T10:07:07.829Z,94675.05
2018-07-30T10:09:34.228Z,94676.41
2018-07-30T10:12:00.639Z,94679.03
2018-07-30T10:14:27.749Z,94664.05
2018-07-30T10:16:54.099Z,94656.67
2018-07-30T10:19:20.468Z,94658.08
2018-07-30T10:21:46.855Z,94664.02
2018-07-30T10:24:13.174Z,94658.98
2018-07-30T10:26:39.514Z,94658.14
2018-07-30T10:29:05.901Z,94656.69
2018-07-30T10:31:32.277Z,94657.02
2018-07-30T10:33:58.613Z,94661.30
2018-07-30T10:36:25.020Z,94669.14
2018-07-30T10:38:51.342Z,94664.40
2018-07-30T10:41:17.733Z,94671.16
2018-07-30T10:43:44.182Z,94667.93
2018-07-30T10:46:10.533Z,94664.97
2018-07-30T10:48:36.949Z,94662.93
2018-07-30T10:51:03.298Z,94651.45
2018-07-30T10:53:29.689Z,94659.88
2018-07-30T10:55:56.063Z,94658.74
2018-07-30T10:58:22.458Z,94651.81
2018-07-30T11:00:48.801Z,94652.77
2018-07-30T11:03:15.190Z,94655.70
2018-07-30T11:05:41.528Z,94661.70
2018-07-30T11:08:07.893Z,94654.11
2018-07-30T11:10:34.306Z,94658.50
2018-07-30T11:13:00.720Z,94669.92
2018-07-30T11:15:27.097Z,94675.81
2018-07-30T11:17:53.522Z,94672.75
2018-07-30T11:20:19.877Z,94680.92
2018-07-30T11:22:46.266Z,94688.28
2018-07-30T11:25:12.652Z,94684.56
2018-07-30T11:27:39.109Z,94687.56
2018-07-30T11:30:05.487Z,94685.23
2018-07-30T11:32:32.287Z,94692.52
2018-07-30T11:34:58.642Z,94686.53
2018-07-30T11:37:24.985Z,94684.92
2018-07-30T11:39:51.396Z,94678.65
2018-07-30T11:42:17.748Z,94679.81
2018-07-30T11:44:44.213Z,94688.39
2018-07-30T11:47:10.563Z,94695.11
2018-07-30T11:49:36.905Z,94692.70
2018-07-30T11:52:03.259Z,94693.22
2018-07-30T11:54:29.716Z,94701.88
2018-07-30T11:56:56.075Z,94708.22
2018-07-30T11:59:22.498Z,94721.03
2018-07-30T12:01:48.982Z,94719.42
2018-07-30T12:04:15.400Z,94707.00
2018-07-30T12:06:41.806Z,94706.88
2018-07-30T12:09:08.155Z,94713.78
2018-07-30T12:11:35.181Z,94708.64
2018-07-30T12:14:01.557Z,94722.83
2018-07-30T12:16:27.917Z,94721.19
2018-07-30T12:18:54.319Z,94719.14
2018-07-30T12:21:20.672Z,94711.87
2018-07-30T12:23:47.134Z,94709.58
2018-07-30T12:26:13.727Z,94713.33
2018-07-30T12:28:40.078Z,94721.00
2018-07-30T12:31:06.443Z,94721.97
2018-07-30T12:33:32.760Z,94716.36
2018-07-30T12:35:59.124Z,94712.02
2018-07-30T12:38:25.572Z,94706.17
2018-07-30T12:40:51.923Z,94700.94
2018-07-30T12:43:18.433Z,94701.16
2018-07-30T12:45:44.785Z,94696.94
2018-07-30T12:48:11.295Z,94694.34
2018-07-30T12:50:37.655Z,94694.32
2018-07-30T12:53:04.031Z,94700.66
2018-07-30T12:55:30.357Z,94702.77
2018-07-30T12:57:56.674Z,94697.85
2018-07-30T13:00:23.055Z,94698.48
2018-07-30T13:02:49.424Z,94696.34
2018-07-30T13:05:15.823Z,94701.80
2018-07-30T13:07:42.231Z,94700.41
2018-07-30T13:10:08.586Z,94692.83
2018-07-30T13:12:34.939Z,94692.86
2018-07-30T13:15:01.305Z,94697.98
2018-07-30T13:17:27.656Z,94692.64
2018-07-30T13:19:54.060Z,94693.02
2018-07-30T13:22:20.396Z,94696.40
2018-07-30T13:24:46.718Z,94689.23
2018-07-30T13:27:13.053Z,94680.03
2018-07-30T13:29:39.421Z,94686.66
2018-07-30T13:32:05.765Z,94688.07
2018-07-30T13:34:32.109Z,94689.64
2018-07-30T13:37:01.872Z,94692.89
2018-07-30T13:39:28.285Z,94684.28
2018-07-30T13:41:55.091Z,94680.20
2018-07-30T13:44:21.483Z,94688.56
2018-07-30T13:46:47.860Z,94684.23
2018-07-30T13:49:14.282Z,94686.67
2018-07-30T13:51:40.692Z,94684.50
2018-07-30T13:54:07.192Z,94686.48
2018-07-30T13:56:33.556Z,94696.45
2018-07-30T13:58:59.899Z,94692.81
2018-07-30T14:01:26.239Z,94688.97
2018-07-30T14:03:52.615Z,94684.52
2018-07-30T14:06:19.055Z,94680.09
2018-07-30T14:08:45.343Z,94680.20
2018-07-30T14:11:11.729Z,94676.80
2018-07-30T14:13:38.104Z,94674.91
2018-07-30T14:16:04.541Z,94674.50
2018-07-30T14:18:30.906Z,94670.72
2018-07-30T14:20:57.258Z,94656.15
2018-07-30T14:23:23.610Z,94648.41
2018-07-30T14:25:49.978Z,94652.11
2018-07-30T14:28:16.351Z,94653.05
2018-07-30T14:30:42.697Z,94663.55
2018-07-30T14:33:09.109Z,94668.91
2018-07-30T14:35:35.515Z,94672.03
2018-07-30T14:38:01.844Z,94675.48
2018-07-30T14:40:28.307Z,94668.28
2018-07-30T14:42:54.767Z,94662.33
2018-07-30T14:45:21.214Z,94663.80
2018-07-30T14:47:47.673Z,94658.98
2018-07-30T14:50:15.703Z,94658.27
2018-07-30T14:52:42.640Z,94657.28
2018-07-30T14:55:09.535Z,94660.84
2018-07-30T14:57:35.990Z,94666.06
2018-07-30T15:00:02.459Z,94668.14
2018-07-30T15:02:28.838Z,94679.52
2018-07-30T15:04:55.183Z,94683.44
2018-07-30T15:07:21.505Z,94685.73
2018-07-30T15:09:47.880Z,94685.89
2018-07-30T15:12:14.259Z,94682.02
2018-07-30T15:14:40.635Z,94683.94
2018-07-30T15:17:06.992Z,94683.22
2018-07-30T15:19:33.396Z,94686.59
2018-07-30T15:21:59.880Z,94686.41
2018-07-30T15:24:26.209Z,94682.87
2018-07-30T15:26:52.611Z,94685.33
2018-07-30T15:29:18.955Z,94680.41
2018-07-30T15:31:45.286Z,94673.92
2018-07-30T15:34:11.614Z,94668.65
2018-07-30T15:36:37.998Z,94671.45
2018-07-30T15:39:04.339Z,94668.75
2018-07-30T15:41:30.660Z,94675.15
2018-07-30T15:43:57.039Z,94673.63
2018-07-30T15:46:23.433Z,94684.67
2018-07-30T15:48:49.799Z,94688.61
2018-07-30T15:51:16.128Z,94697.25
2018-07-30T15:53:42.525Z,94701.95
2018-07-30T15:56:08.855Z,94704.88
2018-07-30T15:58:35.224Z,94702.01
2018-07-30T16:01:01.601Z,94706.64
2018-07-30T16:03:27.938Z,94698.83
2018-07-30T16:05:54.359Z,94694.82
2018-07-30T16:08:20.662Z,94704.25
2018-07-30T16:10:47.006Z,94711.81
2018-07-30T16:13:13.390Z,94718.75
2018-07-30T16:15:39.722Z,94712.31
2018-07-30T16:18:06.133Z,94713.19
2018-07-30T16:20:32.505Z,94715.37
2018-07-30T16:22:58.891Z,94710.97
2018-07-30T16:25:25.223Z,94712.33
2018-07-30T16:27:51.546Z,94721.97
2018-07-30T16:30:17.871Z,94727.30
2018-07-30T16:32:44.232Z,94724.58
2018-07-30T16:35:10.568Z,94728.05
2018-07-30T16:37:36.934Z,94730.84
2018-07-30T16:40:03.269Z,94727.97
2018-07-30T16:42:29.658Z,94725.13
2018-07-30T16:44:55.986Z,94729.28
2018-07-30T16:47:22.364Z,94723.58
2018-07-30T16:49:48.731Z,94727.56
2018-07-30T16:52:15.074Z,94725.28
2018-07-30T16:54:41.390Z,94725.13
2018-07-30T16:57:07.753Z,94728.88
2018-07-30T16:59:34.091Z,94735.88
2018-07-30T17:02:00.430Z,94724.84
2018-07-30T17:04:26.785Z,94724.64
2018-07-30T17:06:53.111Z,94725.52
2018-07-30T17:09:19.470Z,94729.38
2018-07-30T17:11:45.873Z,94722.72
2018-07-30T17:14:12.230Z,94724.81
2018-07-30T17:16:38.593Z,94722.43
2018-07-30T17:19:04.954Z,94725.55
2018-07-30T17:21:31.332Z,94737.33
2018-07-30T17:23:57.666Z,94761.64
2018-07-30T17:26:23.991Z,94763.94
2018-07-30T17:28:50.328Z,94760.66
2018-07-30T17:31:16.679Z,94757.75
2018-07-30T17:33:43.039Z,94759.22
2018-07-30T17:36:09.432Z,94765.00
2018-07-30T17:38:35.799Z,94762.40
2018-07-30T17:41:02.130Z,94757.23
2018-07-30T17:43:28.536Z,94758.05
2018-07-30T17:45:54.876Z,94763.95
2018-07-30T17:48:21.200Z,94769.06
2018-07-30T17:50:47.559Z,94762.45
2018-07-30T17:53:13.991Z,94757.68
2018-07-30T17:55:40.311Z,94762.98
2018-07-30T17:58:06.658Z,94763.34
2018-07-30T18:00:33.037Z,94770.44
2018-07-30T18:02:59.438Z,94772.75
2018-07-30T18:05:25.883Z,94780.64
2018-07-30T18:07:52.381Z,94771.02
2018-07-30T18:10:18.843Z,94772.66
2018-07-30T18:12:45.452Z,94767.66
2018-07-30T18:15:11.907Z,94771.92
2018-07-30T18:17:38.398Z,94774.23
2018-07-30T18:20:04.882Z,94778.64
2018-07-30T18:22:31.365Z,94780.27
2018-07-30T18:24:58.052Z,94772.35
2018-07-30T18:27:24.515Z,94774.05
2018-07-30T18:29:51.132Z,94778.59
2018-07-30T18:32:17.460Z,94781.99
2018-07-30T18:34:43.782Z,94784.01
2018-07-30T18:37:10.155Z,94783.75
2018-07-30T18:39:36.513Z,94788.09
2018-07-30T18:42:02.865Z,94788.97
2018-07-30T18:44:29.292Z,94791.59
2018-07-30T18:46:55.656Z,94788.45
2018-07-30T18:49:21.987Z,94786.19
2018-07-30T18:51:48.314Z,94784.84
2018-07-30T18:54:14.646Z,94789.48
2018-07-30T18:56:41.023Z,94792.32
2018-07-30T18:59:07.330Z,94804.91
2018-07-30T19:01:33.738Z,94807.84
2018-07-30T19:04:00.070Z,94812.38
2018-07-30T19:06:26.392Z,94810.94
2018-07-30T19:08:52.774Z,94806.30
2018-07-30T19:11:19.118Z,94811.00
2018-07-30T19:13:45.524Z,94804.14
2018-07-30T19:16:11.877Z,94796.34
2018-07-30T19:18:38.759Z,94808.81
2018-07-30T19:21:05.086Z,94802.64
2018-07-30T19:23:31.432Z,94802.70
2018-07-30T19:25:57.810Z,94807.64
2018-07-30T19:28:24.165Z,94807.62
2018-07-30T19:30:50.550Z,94808.98
2018-07-30T19:33:16.928Z,94813.41
2018-07-30T19:35:43.317Z,94811.48
2018-07-30T19:38:09.652Z,94818.05
2018-07-30T19:40:36.035Z,94823.31
2018-07-30T19:43:02.432Z,94825.69
2018-07-30T19:45:28.714Z,94826.91
2018-07-30T19:47:55.083Z,94824.34
2018-07-30T19:50:21.403Z,94831.14
2018-07-30T19:52:48.443Z,94832.38
2018-07-30T19:55:14.842Z,94839.90
2018-07-30T19:57:41.257Z,94846.97
2018-07-30T20:00:07.553Z,94843.55
2018-07-30T20:02:33.876Z,94844.21
2018-07-30T20:05:00.254Z,94841.80
2018-07-30T20:07:26.624Z,94846.84
2018-07-30T20:09:52.944Z,94849.01
2018-07-30T20:12:19.388Z,94851.59
2018-07-30T20:14:45.672Z,94856.13
2018-07-30T20:17:12.042Z,94854.88
2018-07-30T20:19:38.370Z,94861.57
2018-07-30T20:22:04.767Z,94856.52
2018-07-30T20:24:31.261Z,94852.66
2018-07-30T20:26:57.509Z,94859.16
2018-07-30T20:29:23.846Z,94865.14
2018-07-30T20:31:50.234Z,94861.63
2018-07-30T20:34:16.622Z,94859.92
2018-07-30T20:36:42.960Z,94866.13
2018-07-30T20:39:09.360Z,94865.00
2018-07-30T20:41:35.740Z,94865.88
2018-07-30T20:44:02.092Z,94864.78
2018-07-30T20:46:28.457Z,94855.90
2018-07-30T20:48:54.835Z,94860.28
2018-07-30T20:51:21.186Z,94859.57
2018-07-30T20:53:47.933Z,94856.17
2018-07-30T20:56:15.243Z,94861.05
2018-07-30T20:58:42.176Z,94848.28
2018-07-30T21:01:08.652Z,94844.91
2018-07-30T21:03:35.006Z,94849.45
2018-07-30T21:06:01.367Z,94849.23
2018-07-30T21:08:27.761Z,94854.61
2018-07-30T21:10:54.110Z,94856.39
2018-07-30T21:13:20.484Z,94851.05
2018-07-30T21:15:46.856Z,94853.71
2018-07-30T21:18:13.190Z,94860.56
2018-07-30T21:20:39.559Z,94856.23
2018-07-30T21:23:05.889Z,94855.36
2018-07-30T21:25:32.250Z,94859.98
2018-07-30T21:27:58.571Z,94864.56
2018-07-30T21:30:24.947Z,94869.63
2018-07-30T21:32:51.302Z,94867.85
2018-07-30T21:35:17.711Z,94863.61
2018-07-30T21:37:44.121Z,94858.17
2018-07-30T21:40:10.516Z,94858.34
2018-07-30T21:42:36.867Z,94855.33
2018-07-30T21:45:03.227Z,94860.67
2018-07-30T21:47:29.580Z,94854.61
2018-07-30T21:49:56.010Z,94857.91
2018-07-30T21:52:22.379Z,94855.68
2018-07-30T21:54:48.770Z,94858.42
2018-07-30T21:57:15.106Z,94851.60
2018-07-30T21:59:41.456Z,94848.53
2018-07-30T22:02:07.785Z,94853.46
2018-07-30T22:04:34.211Z,94860.36
2018-07-30T22:07:00.555Z,94855.73
2018-07-30T22:09:26.911Z,94859.33
2018-07-30T22:11:53.301Z,94855.84
2018-07-30T22:14:19.648Z,94855.63
2018-07-30T22:16:46.044Z,94857.88
2018-07-30T22:19:12.432Z,94852.64
2018-07-30T22:21:38.829Z,94852.23
2018-07-30T22:24:05.198Z,94845.92
2018-07-30T22:26:31.593Z,94846.45
2018-07-30T22:28:58.004Z,94855.52
2018-07-30T22:31:24.358Z,94849.73
2018-07-30T22:33:50.751Z,94847.63
2018-07-30T22:36:17.098Z,94851.48
2018-07-30T22:38:43.508Z,94856.80
2018-07-30T22:41:09.891Z,94858.17
2018-07-30T22:43:36.265Z,94851.19
2018-07-30T22:46:02.658Z,94848.53
2018-07-30T22:48:29.018Z,94847.62
2018-07-30T22:50:55.368Z,94842.83
2018-07-30T22:53:21.755Z,94845.05
2018-07-30T22:55:48.111Z,94846.69
2018-07-30T22:58:14.515Z,94840.61
2018-07-30T23:00:40.999Z,94831.29
2018-07-30T23:03:07.372Z,94836.11
2018-07-30T23:05:33.730Z,94832.97
2018-07-30T23:08:00.114Z,94839.98
2018-07-30T23:10:26.471Z,94830.25
2018-07-30T23:12:52.891Z,94826.38
2018-07-30T23:15:19.249Z,94823.48
2018-07-30T23:17:45.618Z,94824.77
2018-07-30T23:20:11.981Z,94826.58
2018-07-30T23:22:38.435Z,94828.50
2018-07-30T23:25:04.787Z,94826.16
2018-07-30T23:27:31.146Z,94824.77
2018-07-30T23:29:57.509Z,94834.36
2018-07-30T23:32:23.884Z,94827.51
2018-07-30T23:34:50.239Z,94828.74
2018-07-30T23:37:16.705Z,94817.70
2018-07-30T23:39:43.031Z,94819.73
2018-07-30T23:42:09.425Z,94814.30
2018-07-30T23:44:35.749Z,94817.13
2018-07-30T23:47:02.099Z,94817.86
2018-07-30T23:49:28.502Z,94827.09
2018-07-30T23:51:54.935Z,94824.77
2018-07-30T23:54:21.373Z,94825.02
2018-07-30T23:56:47.758Z,94825.48
2018-07-30T23:59:14.121Z,94823.38
